Time;durP1;ratioP1;P1;durP2;ratioP2;P2;SDS_P1;SDS_P2;PMS_P1;PMS_P2;Temp;Humidity;BMP_temperature;BMP_pressure;BME280_temperature;BME280_humidity;BME280_pressure;Samples;Min_cycle;Max_cycle;Signal;HPM_P1;HPM_P2
2022/05/28 00:01:05;;;;;;;0.20;0.20;;;17.20;52.50;19.30;94304.00;;;;10194939;28;45259;-63
2022/05/28 00:06:29;;;;;;;0.10;0.10;;;17.20;52.50;19.30;94281.00;;;;10194663;28;45339;-63
2022/05/28 00:11:49;;;;;;;1.38;0.30;;;17.20;52.50;19.30;94279.00;;;;10194589;28;45752;-63
2022/05/28 00:17:10;;;;;;;0.47;0.10;;;17.20;52.40;19.30;94284.00;;;;10193678;28;45313;-63
2022/05/28 00:22:32;;;;;;;0.93;0.30;;;17.20;52.40;19.30;94281.00;;;;10194492;28;45196;-63
2022/05/28 00:27:53;;;;;;;0.30;0.25;;;17.20;52.40;19.30;94263.00;;;;10194572;28;45234;-62
2022/05/28 00:33:13;;;;;;;0.20;0.10;;;17.20;52.40;19.30;94266.00;;;;10194003;28;45124;-63
2022/05/28 00:38:35;;;;;;;0.55;0.20;;;17.20;52.40;19.30;94244.00;;;;10193093;28;45195;-63
2022/05/28 00:43:56;;;;;;;0.63;0.20;;;17.20;52.40;19.30;94252.00;;;;10193837;28;45185;-63
2022/05/28 00:49:28;;;;;;;0.55;0.20;;;17.20;52.40;19.30;94256.00;;;;10193386;28;46025;-63
2022/05/28 00:54:51;;;;;;;0.28;0.17;;;17.20;52.30;19.20;94248.00;;;;10193695;28;45293;-63
2022/05/28 01:00:16;;;;;;;0.20;0.20;;;17.20;52.30;19.20;94230.00;;;;10189612;28;45374;-64
2022/05/28 01:05:45;;;;;;;0.40;0.17;;;17.20;52.30;19.20;94240.00;;;;10188813;28;45188;-64
2022/05/28 01:11:20;;;;;;;0.25;0.25;;;17.20;52.40;19.20;94238.00;;;;10192030;28;45320;-63
2022/05/28 01:16:45;;;;;;;0.20;0.20;;;17.20;52.30;19.20;94228.00;;;;10233890;23;45760;-63
2022/05/28 01:22:16;;;;;;;0.28;0.28;;;17.20;52.30;19.20;94225.00;;;;10272594;28;45213;-63
2022/05/28 01:27:42;;;;;;;0.10;0.10;;;17.10;52.30;19.20;94214.00;;;;10272182;28;45998;-63
2022/05/28 01:33:04;;;;;;;0.40;0.30;;;17.10;52.20;19.20;94201.00;;;;10272512;28;45393;-63
2022/05/28 01:38:26;;;;;;;0.20;0.20;;;17.10;52.20;19.20;94205.00;;;;10271862;28;45394;-63
2022/05/28 01:43:50;;;;;;;0.22;0.20;;;17.10;52.10;19.20;94199.00;;;;10272192;28;45130;-62
2022/05/28 01:49:15;;;;;;;0.40;0.30;;;17.10;52.10;19.20;94187.00;;;;10271702;28;45110;-63
2022/05/28 01:54:43;;;;;;;0.20;0.20;;;17.10;52.10;19.20;94192.00;;;;10272110;28;45999;-63
2022/05/28 02:00:09;;;;;;;0.63;0.32;;;17.10;52.10;19.20;94193.00;;;;10271672;28;45195;-62
2022/05/28 02:05:31;;;;;;;0.22;0.20;;;17.10;52.00;19.20;94185.00;;;;10271258;28;45171;-63
2022/05/28 02:11:03;;;;;;;0.30;0.30;;;17.10;52.00;19.20;94178.00;;;;10271391;28;45167;-63
2022/05/28 02:16:34;;;;;;;0.30;0.20;;;17.10;52.00;19.20;94172.00;;;;10271486;28;45138;-62
2022/05/28 02:22:03;;;;;;;0.32;0.22;;;17.10;52.00;19.20;94176.00;;;;10275826;28;45706;-62
2022/05/28 02:27:27;;;;;;;0.70;0.35;;;17.10;52.00;19.20;94177.00;;;;10277754;28;45686;-62
2022/05/28 02:32:49;;;;;;;0.45;0.30;;;17.10;52.00;19.20;94157.00;;;;10277693;28;45119;-63
2022/05/28 02:38:09;;;;;;;0.30;0.20;;;17.10;52.00;19.20;94160.00;;;;10277205;28;45778;-63
2022/05/28 02:43:31;;;;;;;0.30;0.30;;;17.10;52.00;19.20;94165.00;;;;10277834;28;45180;-63
2022/05/28 02:48:53;;;;;;;0.20;0.10;;;17.10;52.00;19.10;94164.00;;;;10276692;28;45207;-62
2022/05/28 02:54:13;;;;;;;0.15;0.15;;;17.10;52.00;19.10;94168.00;;;;10277139;28;45147;-63
2022/05/28 02:59:34;;;;;;;0.20;0.20;;;17.00;52.00;19.10;94165.00;;;;10276604;28;45258;-63
2022/05/28 03:04:56;;;;;;;0.40;0.30;;;17.10;52.00;19.10;94164.00;;;;10276935;28;45869;-63
2022/05/28 03:10:17;;;;;;;0.28;0.28;;;17.00;52.00;19.10;94159.00;;;;10276140;28;45167;-63
2022/05/28 03:15:38;;;;;;;0.13;0.13;;;17.00;51.90;19.10;94150.00;;;;10275636;28;45139;-63
2022/05/28 03:20:59;;;;;;;0.30;0.20;;;17.30;52.20;19.10;94149.00;;;;10276192;28;45251;-63
2022/05/28 03:26:24;;;;;;;0.20;0.20;;;17.00;51.90;19.10;94151.00;;;;10275717;28;45255;-63
2022/05/28 03:31:45;;;;;;;0.30;0.20;;;17.00;51.90;19.10;94141.00;;;;10275482;28;45793;-63
2022/05/28 03:37:07;;;;;;;0.43;0.30;;;17.00;51.90;19.10;94154.00;;;;10275305;28;45838;-63
2022/05/28 03:42:28;;;;;;;0.20;0.20;;;17.00;51.90;19.10;94158.00;;;;10275273;28;45289;-63
2022/05/28 03:47:48;;;;;;;0.30;0.30;;;17.00;51.90;19.10;94159.00;;;;10274841;28;45257;-63
2022/05/28 03:53:10;;;;;;;0.28;0.28;;;17.00;51.80;19.10;94142.00;;;;10275684;28;45152;-63
2022/05/28 03:58:31;;;;;;;0.40;0.30;;;17.00;51.90;19.10;94156.00;;;;10274584;28;45198;-63
2022/05/28 04:03:51;;;;;;;1.10;0.22;;;17.00;51.90;19.10;94161.00;;;;10275114;28;45234;-63
2022/05/28 04:09:13;;;;;;;0.32;0.28;;;17.00;51.80;19.10;94162.00;;;;10274117;28;45691;-63
2022/05/28 04:14:34;;;;;;;0.30;0.20;;;17.00;51.80;19.10;94165.00;;;;10274740;28;45686;-63
2022/05/28 04:19:54;;;;;;;0.30;0.20;;;17.00;52.50;19.00;94162.00;;;;10273971;28;45887;-64
2022/05/28 04:25:16;;;;;;;0.50;0.20;;;17.00;51.80;19.00;94168.00;;;;10274509;28;45187;-63
2022/05/28 04:30:37;;;;;;;0.40;0.30;;;17.00;51.80;19.00;94173.00;;;;10274088;28;45179;-62
2022/05/28 04:35:58;;;;;;;0.45;0.30;;;17.00;51.80;19.00;94176.00;;;;10274005;28;45492;-63
2022/05/28 04:41:20;;;;;;;0.40;0.40;;;17.00;51.80;19.00;94182.00;;;;10273854;28;45118;-63
2022/05/28 04:46:41;;;;;;;0.20;0.20;;;17.00;51.80;19.00;94182.00;;;;10273210;28;45298;-63
2022/05/28 04:52:01;;;;;;;0.30;0.20;;;16.90;51.80;19.00;94182.00;;;;10273251;28;45898;-63
2022/05/28 04:57:23;;;;;;;0.30;0.20;;;16.90;51.80;19.00;94179.00;;;;10272752;28;45190;-63
2022/05/28 05:02:44;;;;;;;0.47;0.28;;;16.90;51.70;19.00;94172.00;;;;10273303;28;45335;-63
2022/05/28 05:08:05;;;;;;;0.20;0.20;;;16.90;51.80;19.00;94182.00;;;;10272491;28;45162;-63
2022/05/28 05:13:28;;;;;;;0.55;0.32;;;16.90;51.70;19.00;94192.00;;;;10272743;28;45162;-64
2022/05/28 05:18:48;;;;;;;0.40;0.30;;;16.90;51.70;19.00;94168.00;;;;10272155;28;45149;-63
2022/05/28 05:24:09;;;;;;;1.50;0.30;;;16.90;51.70;19.00;94172.00;;;;10272717;28;45690;-63
2022/05/28 05:29:32;;;;;;;0.47;0.30;;;16.90;51.70;19.00;94195.00;;;;10272408;28;45362;-63
2022/05/28 05:34:53;;;;;;;0.20;0.20;;;16.90;51.70;19.00;94199.00;;;;10272150;28;45706;-63
2022/05/28 05:40:14;;;;;;;0.50;0.35;;;16.90;51.70;19.00;94193.00;;;;10273193;28;45190;-63
2022/05/28 05:45:37;;;;;;;0.40;0.30;;;16.90;51.70;19.00;94196.00;;;;10272856;28;45738;-63
2022/05/28 05:51:05;;;;;;;0.43;0.30;;;16.90;51.70;19.00;94199.00;;;;10273535;28;45153;-64
2022/05/28 05:56:26;;;;;;;0.57;0.47;;;16.90;51.70;19.00;94183.00;;;;10276764;28;45706;-62
2022/05/28 06:01:49;;;;;;;0.40;0.20;;;16.90;51.60;19.00;94186.00;;;;10280113;28;45104;-63
2022/05/28 06:07:09;;;;;;;0.50;0.30;;;16.90;51.70;19.00;94192.00;;;;10279534;28;45369;-63
2022/05/28 06:12:30;;;;;;;0.43;0.22;;;16.90;51.70;19.00;94186.00;;;;10279881;28;45132;-63
2022/05/28 06:17:51;;;;;;;0.47;0.30;;;16.90;51.70;19.00;94202.00;;;;10278057;28;45722;-63
2022/05/28 06:23:12;;;;;;;0.57;0.30;;;16.90;52.30;19.00;94180.00;;;;10279366;28;45161;-63
2022/05/28 06:28:33;;;;;;;0.73;0.38;;;16.90;51.60;19.00;94185.00;;;;10278790;28;45175;-63
2022/05/28 06:33:55;;;;;;;0.47;0.20;;;16.90;51.70;19.00;94188.00;;;;10279262;28;45195;-63
2022/05/28 06:39:16;;;;;;;0.30;0.20;;;16.90;51.60;19.00;94173.00;;;;10278358;28;45176;-63
2022/05/28 06:44:36;;;;;;;0.30;0.30;;;16.90;51.60;19.00;94176.00;;;;10278572;28;45147;-63
2022/05/28 06:55:40;;;;;;;0.43;0.30;;;16.90;51.60;19.00;94177.00;;;;10237701;28;45765;-63
2022/05/28 07:01:02;;;;;;;0.55;0.40;;;16.90;51.60;19.10;94185.00;;;;10238038;28;45691;-63
2022/05/28 07:06:24;;;;;;;0.85;0.40;;;17.00;51.50;19.00;94179.00;;;;10235390;28;45186;-63
2022/05/28 07:11:44;;;;;;;0.73;0.43;;;17.00;51.50;19.10;94172.00;;;;10236483;28;45862;-63
2022/05/28 07:17:05;;;;;;;0.55;0.38;;;17.00;51.40;19.10;94164.00;;;;10236268;28;45871;-63
2022/05/28 07:22:27;;;;;;;1.05;0.40;;;17.00;51.40;19.10;94163.00;;;;10236109;28;45203;-63
2022/05/28 07:27:47;;;;;;;0.73;0.43;;;17.00;51.40;19.10;94167.00;;;;10239984;28;45192;-62
2022/05/28 07:33:08;;;;;;;0.93;0.70;;;17.00;51.30;19.10;94155.00;;;;10274808;28;45206;-66
2022/05/28 07:38:32;;;;;;;0.85;0.45;;;17.10;51.40;19.20;94165.00;;;;10259301;28;45384;-62
2022/05/28 07:43:54;;;;;;;1.25;0.40;;;17.10;51.60;19.20;94155.00;;;;10262846;28;45683;-63
2022/05/28 07:49:15;;;;;;;1.60;0.60;;;17.20;51.60;19.20;94151.00;;;;10274753;28;45179;-63
2022/05/28 07:54:37;;;;;;;1.45;0.47;;;17.20;51.60;19.30;94154.00;;;;10234779;28;45671;-63
2022/05/28 07:59:58;;;;;;;0.57;0.40;;;17.20;51.60;19.30;94143.00;;;;10232850;28;45191;-62
2022/05/28 08:05:18;;;;;;;1.02;0.57;;;17.20;51.90;19.20;94146.00;;;;10236010;28;45191;-62
2022/05/28 08:10:41;;;;;;;1.80;0.45;;;17.20;51.60;19.20;94125.00;;;;10235382;28;45163;-62
2022/05/28 08:16:02;;;;;;;1.83;0.60;;;17.20;51.40;19.20;94118.00;;;;10234834;28;45796;-62
2022/05/28 08:27:02;;;;;;;2.40;0.60;;;17.10;51.40;19.10;94123.00;;;;10234947;28;45104;-62
2022/05/28 08:32:23;;;;;;;1.13;0.50;;;17.10;51.50;19.10;94122.00;;;;10235411;28;45237;-62
2022/05/28 08:37:43;;;;;;;3.50;0.55;;;17.10;51.50;19.10;94124.00;;;;10234849;28;45120;-62
2022/05/28 08:43:05;;;;;;;2.75;0.60;;;17.10;51.50;19.10;94116.00;;;;10234835;28;45215;-62
2022/05/28 08:48:46;;;;;;;2.20;0.60;;;17.10;51.60;19.10;94126.00;;;;10234402;28;45182;-62
2022/05/28 08:54:14;;;;;;;1.70;0.68;;;17.00;51.50;19.10;94107.00;;;;10235587;28;45427;-62
2022/05/28 08:59:41;;;;;;;0.90;0.60;;;17.00;51.50;19.10;94098.00;;;;10234672;28;45236;-62
2022/05/28 09:05:04;;;;;;;1.20;0.80;;;17.10;51.60;19.10;94103.00;;;;10235558;28;45155;-62
2022/05/28 09:10:27;;;;;;;0.80;0.43;;;17.00;51.60;19.10;94065.00;;;;10234919;28;46060;-61
2022/05/28 09:15:51;;;;;;;0.82;0.57;;;17.00;51.60;19.10;94094.00;;;;10232406;28;45116;-63
2022/05/28 09:21:16;;;;;;;1.00;0.47;;;17.00;51.50;19.10;94101.00;;;;10232685;28;45695;-61
2022/05/28 09:26:50;;;;;;;1.00;0.50;;;17.00;51.50;19.10;94100.00;;;;10232045;28;45707;-62
2022/05/28 09:32:25;;;;;;;1.40;0.50;;;17.00;51.60;19.10;94098.00;;;;10231521;28;45894;-63
2022/05/28 09:37:56;;;;;;;0.75;0.55;;;17.00;51.30;19.10;94096.00;;;;10231521;28;45175;-61
2022/05/28 09:43:43;;;;;;;1.30;0.70;;;17.00;51.40;19.10;94078.00;;;;10232443;28;45860;-62
2022/05/28 09:49:11;;;;;;;2.38;0.60;;;17.00;51.30;19.10;94058.00;;;;10231672;28;45226;-62
2022/05/28 09:54:34;;;;;;;1.10;0.60;;;17.10;51.30;19.10;94071.00;;;;10231749;28;45101;-63
2022/05/28 10:00:00;;;;;;;0.75;0.50;;;17.00;51.30;19.10;94078.00;;;;10231913;28;45331;-63
2022/05/28 10:05:22;;;;;;;0.80;0.60;;;17.10;51.30;19.10;94061.00;;;;10231418;28;45913;-62
2022/05/28 10:10:42;;;;;;;0.95;0.43;;;17.10;52.00;19.10;94067.00;;;;10230778;28;45108;-62
2022/05/28 10:16:06;;;;;;;1.35;0.60;;;17.10;51.30;19.10;94050.00;;;;10230168;28;45473;-62
2022/05/28 10:21:32;;;;;;;0.77;0.45;;;17.10;51.40;19.10;94053.00;;;;10230803;28;45889;-63
2022/05/28 10:26:55;;;;;;;0.52;0.50;;;17.10;51.30;19.10;94038.00;;;;10230775;28;45151;-63
2022/05/28 10:32:24;;;;;;;2.30;0.60;;;17.10;51.30;19.10;94046.00;;;;10231163;28;45169;-63
2022/05/28 10:37:45;;;;;;;1.27;0.50;;;17.10;51.30;19.10;94032.00;;;;10230274;28;45878;-62
2022/05/28 10:43:26;;;;;;;1.58;0.60;;;17.10;51.30;19.10;94030.00;;;;10235445;28;45263;-62
2022/05/28 10:49:15;;;;;;;1.38;0.60;;;17.10;51.40;19.10;94023.00;;;;10237188;28;45280;-62
2022/05/28 10:54:49;;;;;;;1.20;0.60;;;17.10;51.30;19.10;94020.00;;;;10237182;28;45187;-62
2022/05/28 11:00:14;;;;;;;0.98;0.50;;;17.10;51.30;19.10;94022.00;;;;10236406;28;45711;-62
2022/05/28 11:06:17;;;;;;;1.10;0.60;;;17.10;51.30;19.10;93998.00;;;;10236884;28;45200;-63
2022/05/28 11:11:55;;;;;;;0.90;0.52;;;17.10;51.30;19.10;94002.00;;;;10219389;28;45183;-62
2022/05/28 11:17:30;;;;;;;1.08;0.50;;;17.10;51.40;19.10;94001.00;;;;10246048;28;45267;-62
2022/05/28 11:23:26;;;;;;;1.60;0.70;;;17.10;51.30;19.10;93990.00;;;;10252883;28;45158;-63
2022/05/28 11:29:09;;;;;;;0.90;0.55;;;17.10;51.40;19.10;93984.00;;;;10247694;28;45220;-63
2022/05/28 11:34:40;;;;;;;0.98;0.60;;;17.10;51.40;19.10;93994.00;;;;10235870;28;45160;-63
2022/05/28 11:40:07;;;;;;;0.57;0.50;;;17.10;51.30;19.20;93982.00;;;;10235161;28;45166;-62
2022/05/28 11:45:34;;;;;;;;;;;17.10;51.30;19.20;93962.00;;;;10235825;28;45196;-63
2022/05/28 11:56:43;;;;;;;0.80;0.50;;;17.10;51.20;19.20;93962.00;;;;10235094;28;45747;-62
2022/05/28 12:02:10;;;;;;;1.02;0.60;;;17.10;51.20;19.10;93954.00;;;;10234942;28;45671;-62
2022/05/28 12:07:36;;;;;;;1.02;0.50;;;17.10;51.20;19.10;93952.00;;;;10229354;28;45216;-62
2022/05/28 12:13:01;;;;;;;1.67;0.50;;;17.10;51.20;19.20;93951.00;;;;10231556;28;45211;-63
2022/05/28 12:18:27;;;;;;;1.35;0.60;;;17.10;51.20;19.10;93940.00;;;;10233018;28;45843;-62
2022/05/28 12:23:47;;;;;;;1.13;0.70;;;17.10;51.20;19.10;93938.00;;;;10234032;28;45169;-62
2022/05/28 12:29:09;;;;;;;1.92;0.65;;;17.10;51.20;19.10;93937.00;;;;10233801;28;45830;-63
2022/05/28 12:34:31;;;;;;;2.35;0.57;;;17.10;51.20;19.20;93938.00;;;;10234257;28;45866;-63
2022/05/28 12:40:05;;;;;;;0.52;0.47;;;17.10;51.30;19.20;93928.00;;;;10233846;28;45807;-62
2022/05/28 12:45:40;;;;;;;0.80;0.55;;;17.20;51.00;19.20;93906.00;;;;10235202;28;45155;-62
2022/05/28 12:51:25;;;;;;;2.78;0.50;;;17.20;51.10;19.20;93909.00;;;;10234301;28;45215;-62
2022/05/28 12:56:46;;;;;;;2.33;0.50;;;17.20;51.20;19.20;93910.00;;;;10232923;28;45297;-63
2022/05/28 13:02:25;;;;;;;1.52;0.70;;;17.10;51.10;19.20;93890.00;;;;10235735;28;45278;-62
2022/05/28 13:07:53;;;;;;;2.17;0.50;;;17.10;51.20;19.20;93903.00;;;;10233202;28;45874;-62
2022/05/28 13:13:39;;;;;;;1.92;0.50;;;17.10;51.20;19.20;93892.00;;;;10234235;28;45300;-63
2022/05/28 13:19:36;;;;;;;2.03;0.63;;;17.10;51.20;19.20;93891.00;;;;10271926;23;45179;-63
2022/05/28 13:25:18;;;;;;;1.48;0.50;;;17.20;51.80;19.20;93909.00;;;;10273096;28;45314;-60
2022/05/28 13:30:42;;;;;;;1.42;0.70;;;17.20;51.10;19.20;93879.00;;;;10311753;28;45800;-60
2022/05/28 13:36:06;;;;;;;2.88;0.80;;;17.10;51.10;19.20;93876.00;;;;10312713;28;45310;-60
2022/05/28 13:41:40;;;;;;;1.65;0.63;;;17.20;51.20;19.20;93871.00;;;;10309767;28;45158;-59
2022/05/28 13:47:02;;;;;;;1.17;0.70;;;17.20;51.10;19.20;93870.00;;;;10306461;28;45158;-61
2022/05/28 13:52:23;;;;;;;3.92;0.80;;;17.20;51.10;19.20;93862.00;;;;10313050;28;45640;-59
2022/05/28 13:57:46;;;;;;;2.63;0.70;;;17.20;51.10;19.20;93861.00;;;;10311507;28;45149;-60
2022/05/28 14:03:08;;;;;;;1.33;0.60;;;17.20;51.00;19.20;93855.00;;;;10311990;28;45774;-60
2022/05/28 14:08:31;;;;;;;4.85;0.60;;;17.10;50.90;19.20;93864.00;;;;10311182;28;45167;-59
2022/05/28 14:13:56;;;;;;;0.93;0.43;;;17.10;50.90;19.20;93845.00;;;;10311976;28;45141;-60
2022/05/28 14:19:21;;;;;;;2.90;0.70;;;17.10;50.90;19.20;93864.00;;;;10316947;28;45796;-60
2022/05/28 14:24:43;;;;;;;0.80;0.43;;;17.20;50.90;19.20;93870.00;;;;10318843;28;45222;-60
2022/05/28 14:30:08;;;;;;;1.27;0.70;;;17.10;50.80;19.20;93865.00;;;;10317508;28;45108;-61
2022/05/28 14:35:42;;;;;;;1.15;0.47;;;17.10;50.90;19.20;93863.00;;;;10317389;28;45257;-60
2022/05/28 14:41:10;;;;;;;1.00;0.35;;;17.10;50.80;19.20;93859.00;;;;10317653;28;45191;-59
2022/05/28 14:46:40;;;;;;;3.38;0.60;;;17.10;50.80;19.20;93844.00;;;;10316650;28;45234;-60
2022/05/28 14:52:05;;;;;;;1.48;0.50;;;17.10;50.70;19.20;93848.00;;;;10317572;28;45167;-61
2022/05/28 14:57:35;;;;;;;1.38;0.63;;;17.10;50.70;19.20;93825.00;;;;10316424;28;45228;-59
2022/05/28 15:03:09;;;;;;;3.28;0.65;;;17.20;50.40;19.30;93840.00;;;;10317415;28;45108;-61
2022/05/28 15:08:30;;;;;;;1.92;0.73;;;17.20;50.20;19.30;93844.00;;;;10316392;28;45241;-60
2022/05/28 15:13:52;;;;;;;1.52;0.63;;;17.20;50.00;19.20;93842.00;;;;10317174;28;45158;-59
2022/05/28 15:19:14;;;;;;;1.45;0.65;;;17.20;49.90;19.20;93829.00;;;;10315394;28;45391;-60
2022/05/28 15:24:35;;;;;;;0.70;0.40;;;17.20;50.00;19.20;93827.00;;;;10317595;28;45425;-60
2022/05/28 15:29:56;;;;;;;2.33;0.60;;;17.20;50.20;19.20;93810.00;;;;10314402;28;45709;-59
2022/05/28 15:41:03;;;;;;;1.40;0.60;;;17.20;50.20;19.20;93798.00;;;;10315103;28;45184;-59
2022/05/28 15:46:23;;;;;;;0.75;0.50;;;17.20;50.20;19.20;93801.00;;;;10315103;28;45228;-60
2022/05/28 15:51:45;;;;;;;0.88;0.57;;;17.20;50.20;19.20;93789.00;;;;10316007;28;45853;-59
2022/05/28 15:57:06;;;;;;;3.65;0.50;;;17.20;50.20;19.20;93783.00;;;;10315213;28;45416;-60
2022/05/28 16:02:27;;;;;;;0.90;0.40;;;17.10;50.30;19.20;93779.00;;;;10307358;28;45201;-60
2022/05/28 16:07:57;;;;;;;1.52;0.40;;;17.10;50.20;19.20;93782.00;;;;10295979;28;46123;-59
2022/05/28 16:13:18;;;;;;;0.52;0.40;;;17.10;50.40;19.30;93769.00;;;;10303350;28;45221;-59
2022/05/28 16:18:42;;;;;;;0.68;0.45;;;17.20;50.20;19.30;93770.00;;;;10271544;28;45129;-60
2022/05/28 16:24:04;;;;;;;1.08;0.40;;;17.30;50.20;19.30;93776.00;;;;10274177;28;45923;-59
2022/05/28 16:29:25;;;;;;;1.08;0.35;;;17.30;50.30;19.40;93754.00;;;;10272074;28;45361;-59
2022/05/28 16:34:46;;;;;;;0.90;0.50;;;17.30;50.20;19.40;93765.00;;;;10279904;28;45762;-60
2022/05/28 16:40:10;;;;;;;1.58;0.60;;;17.30;50.20;19.40;93771.00;;;;10305150;28;45306;-59
2022/05/28 16:45:31;;;;;;;0.82;0.40;;;17.30;50.30;19.30;93756.00;;;;10301648;28;45188;-59
2022/05/28 16:50:52;;;;;;;0.90;0.45;;;17.30;50.00;19.30;93768.00;;;;10297539;28;45229;-60
2022/05/28 16:56:20;;;;;;;0.70;0.40;;;17.30;50.10;19.30;93761.00;;;;10313821;28;45099;-58
2022/05/28 17:01:42;;;;;;;0.68;0.40;;;17.20;50.10;19.30;93750.00;;;;10313278;28;45950;-60
2022/05/28 17:07:03;;;;;;;1.17;0.40;;;17.20;50.00;19.30;93745.00;;;;10310632;28;45101;-59
2022/05/28 17:12:29;;;;;;;1.05;0.38;;;17.20;50.10;19.20;93749.00;;;;10294628;28;45767;-63
2022/05/28 17:17:50;;;;;;;1.00;0.40;;;17.20;50.10;19.30;93741.00;;;;10272552;28;45225;-61
2022/05/28 17:23:10;;;;;;;0.80;0.40;;;17.20;50.20;19.30;93735.00;;;;10271839;28;45134;-61
2022/05/28 17:28:32;;;;;;;1.00;0.40;;;17.20;50.30;19.30;93739.00;;;;10270513;28;45280;-61
2022/05/28 17:33:52;;;;;;;0.88;0.35;;;17.30;50.30;19.30;93756.00;;;;10272304;28;45181;-61
2022/05/28 17:39:13;;;;;;;0.93;0.40;;;17.30;50.20;19.40;93753.00;;;;10285298;28;45140;-61
2022/05/28 17:44:35;;;;;;;0.90;0.30;;;17.30;50.20;19.40;93752.00;;;;10311942;28;45737;-60
2022/05/28 17:49:55;;;;;;;1.23;0.38;;;17.30;50.20;19.40;93744.00;;;;10311262;28;45197;-61
2022/05/28 17:55:18;;;;;;;0.60;0.30;;;17.30;50.30;19.40;93749.00;;;;10318016;28;45750;-60
2022/05/28 18:00:44;;;;;;;1.45;0.50;;;17.30;50.20;19.40;93760.00;;;;10281348;28;45771;-60
2022/05/28 18:06:04;;;;;;;1.88;0.20;;;17.40;50.30;19.40;93763.00;;;;10276896;28;45760;-61
2022/05/28 18:11:25;;;;;;;2.17;0.70;;;17.40;50.20;19.40;93747.00;;;;10278260;28;45135;-60
2022/05/28 18:16:47;;;;;;;0.68;0.30;;;17.40;50.10;19.40;93748.00;;;;10276663;28;45754;-60
2022/05/28 18:22:14;;;;;;;1.98;0.50;;;17.40;50.10;19.40;93752.00;;;;10277265;28;45128;-61
2022/05/28 18:27:40;;;;;;;1.33;0.47;;;17.40;49.80;19.40;93748.00;;;;10277218;28;45171;-65
2022/05/28 18:33:02;;;;;;;2.17;0.50;;;17.40;50.10;19.50;93758.00;;;;10276310;28;45766;-61
2022/05/28 18:38:28;;;;;;;3.03;0.50;;;17.40;50.30;19.50;93745.00;;;;10275978;28;45894;-59
2022/05/28 18:43:49;;;;;;;5.70;0.40;;;17.40;50.30;19.50;93751.00;;;;10277395;28;45155;-61
2022/05/28 18:49:12;;;;;;;1.80;0.50;;;17.40;50.30;19.40;93761.00;;;;10276782;28;45103;-60
2022/05/28 18:54:33;;;;;;;2.28;0.60;;;17.40;50.20;19.40;93760.00;;;;10277678;28;45675;-61
2022/05/28 18:59:53;;;;;;;2.28;0.40;;;17.40;50.10;19.40;93766.00;;;;10276615;28;45213;-60
2022/05/28 19:05:16;;;;;;;2.95;0.68;;;17.30;50.00;19.40;93761.00;;;;10277093;28;45745;-61
2022/05/28 19:10:37;;;;;;;1.42;0.40;;;17.30;50.00;19.40;93756.00;;;;10276768;28;45249;-60
2022/05/28 19:15:58;;;;;;;1.95;0.57;;;17.30;50.00;19.40;93767.00;;;;10275322;28;45115;-60
2022/05/28 19:21:20;;;;;;;2.60;0.38;;;17.30;50.10;19.40;93744.00;;;;10290305;23;45132;-65
2022/05/28 19:32:28;;;;;;;0.98;0.40;;;17.30;50.20;19.30;93743.00;;;;10271245;28;45228;-65
2022/05/28 19:37:50;;;;;;;0.95;0.38;;;17.20;50.80;19.30;93754.00;;;;10272388;28;45356;-65
2022/05/28 19:43:11;;;;;;;0.35;0.22;;;17.20;50.20;19.30;93747.00;;;;10274927;28;45708;-65
2022/05/28 19:48:37;;;;;;;0.98;0.30;;;17.20;50.90;19.20;93757.00;;;;10273773;28;45666;-65
2022/05/28 19:53:59;;;;;;;0.98;0.20;;;17.20;50.20;19.30;93755.00;;;;10275749;28;45133;-65
2022/05/28 19:59:20;;;;;;;1.40;0.30;;;17.10;50.10;19.20;93755.00;;;;10273355;28;45139;-65
2022/05/28 20:04:41;;;;;;;1.65;0.30;;;17.20;50.20;19.20;93759.00;;;;10274536;28;45154;-65
2022/05/28 20:10:04;;;;;;;1.00;0.40;;;17.20;50.30;19.20;93751.00;;;;10273678;28;45249;-65
2022/05/28 20:15:24;;;;;;;0.90;0.30;;;17.10;50.30;19.20;93748.00;;;;10274271;28;45993;-65
2022/05/28 20:20:44;;;;;;;2.00;0.40;;;17.10;50.20;19.20;93754.00;;;;10273463;28;45198;-65
2022/05/28 20:26:07;;;;;;;1.75;0.55;;;17.10;50.30;19.20;93734.00;;;;10273094;28;45289;-65
2022/05/28 20:31:28;;;;;;;0.63;0.40;;;17.10;51.00;19.20;93742.00;;;;10270348;28;45161;-65
2022/05/28 20:36:49;;;;;;;1.17;0.40;;;17.10;50.30;19.10;93724.00;;;;10269153;28;45121;-65
2022/05/28 20:42:11;;;;;;;1.05;0.30;;;17.10;50.30;19.20;93723.00;;;;10273672;28;45790;-65
2022/05/28 20:47:38;;;;;;;0.77;0.28;;;17.10;50.30;19.10;93720.00;;;;10273533;28;45095;-65
2022/05/28 20:53:00;;;;;;;1.10;0.30;;;17.00;50.40;19.10;93716.00;;;;10273772;28;45114;-65
2022/05/28 20:58:21;;;;;;;1.02;0.15;;;17.00;50.40;19.10;93712.00;;;;10273198;28;45182;-65
2022/05/28 21:03:45;;;;;;;0.47;0.32;;;17.00;50.30;19.10;93699.00;;;;10273910;28;45078;-65
2022/05/28 21:09:07;;;;;;;0.82;0.40;;;17.00;50.40;19.10;93711.00;;;;10272978;28;45873;-65
2022/05/28 21:14:29;;;;;;;1.02;0.40;;;17.00;50.40;19.10;93700.00;;;;10273552;28;45321;-65
2022/05/28 21:19:52;;;;;;;1.35;0.25;;;17.00;50.40;19.10;93702.00;;;;10272169;28;45132;-65
2022/05/28 21:25:12;;;;;;;0.88;0.20;;;17.00;50.40;19.10;93695.00;;;;10271403;28;45158;-64
2022/05/28 21:30:35;;;;;;;0.60;0.20;;;17.00;50.40;19.10;93689.00;;;;10272618;28;45717;-65
2022/05/28 21:35:56;;;;;;;0.30;0.20;;;17.00;50.40;19.00;93686.00;;;;10272039;28;45880;-65
2022/05/28 21:41:16;;;;;;;0.63;0.30;;;17.00;50.40;19.00;93685.00;;;;10272098;28;45682;-65
2022/05/28 21:46:39;;;;;;;1.63;0.30;;;17.00;50.40;19.00;93684.00;;;;10272678;28;45326;-65
2022/05/28 21:52:00;;;;;;;0.52;0.20;;;16.90;50.40;19.00;93670.00;;;;10271921;28;45153;-66
2022/05/28 21:57:21;;;;;;;0.90;0.20;;;16.90;50.40;19.00;93676.00;;;;10271478;28;45691;-65
2022/05/28 22:02:43;;;;;;;0.40;0.22;;;16.90;50.40;19.00;93669.00;;;;10271922;28;45849;-65
2022/05/28 22:08:05;;;;;;;1.05;0.30;;;16.90;50.40;19.00;93655.00;;;;10271162;28;45766;-63
2022/05/28 22:13:25;;;;;;;0.90;0.30;;;16.90;50.40;19.00;93654.00;;;;10271822;28;45217;-65
2022/05/28 22:18:49;;;;;;;0.50;0.25;;;16.90;50.40;19.00;93638.00;;;;10270721;28;45144;-64
2022/05/28 22:24:10;;;;;;;0.20;0.20;;;16.90;50.40;18.90;93636.00;;;;10271357;28;45838;-65
2022/05/28 22:29:30;;;;;;;0.43;0.20;;;16.90;50.40;18.90;93630.00;;;;10270811;28;45674;-65
2022/05/28 22:34:52;;;;;;;0.40;0.20;;;16.90;50.40;18.90;93646.00;;;;10271059;28;45140;-65
2022/05/28 22:40:14;;;;;;;0.40;0.28;;;16.90;50.40;18.90;93641.00;;;;10277925;28;45405;-64
2022/05/28 22:45:34;;;;;;;0.22;0.20;;;16.90;50.40;18.90;93638.00;;;;10277367;28;45213;-64
2022/05/28 22:50:58;;;;;;;0.40;0.17;;;16.80;50.30;18.90;93627.00;;;;10277353;28;45202;-65
2022/05/28 22:56:19;;;;;;;0.52;0.20;;;16.80;50.50;18.90;93608.00;;;;10277377;28;45105;-64
2022/05/28 23:01:39;;;;;;;0.40;0.30;;;16.80;50.40;18.90;93604.00;;;;10277019;28;45674;-64
2022/05/28 23:07:02;;;;;;;0.77;0.30;;;16.80;50.40;18.90;93589.00;;;;10276540;28;45150;-64
2022/05/28 23:12:22;;;;;;;0.50;0.20;;;16.80;50.30;18.90;93576.00;;;;10276439;28;45835;-64
2022/05/28 23:17:44;;;;;;;0.38;0.20;;;16.80;50.30;18.90;93578.00;;;;10275908;28;45115;-64
2022/05/28 23:28:44;;;;;;;0.40;0.20;;;16.80;50.40;18.90;93552.00;;;;10276105;28;45122;-64
2022/05/28 23:34:06;;;;;;;0.10;0.10;;;16.80;50.30;18.90;93550.00;;;;10276203;28;45150;-64
2022/05/28 23:39:28;;;;;;;0.88;0.30;;;16.80;50.30;18.80;93550.00;;;;10275425;28;45181;-64
2022/05/28 23:44:48;;;;;;;0.65;0.20;;;16.80;50.40;18.80;93554.00;;;;10276136;28;45209;-65
2022/05/28 23:50:13;;;;;;;0.45;0.20;;;16.80;50.40;18.80;93556.00;;;;10274607;28;45153;-65
2022/05/28 23:55:44;;;;;;;0.27;0.20;;;16.80;50.40;18.80;93539.00;;;;10275848;28;46466;-65
